New Haven, Kentucky
Current Conditions -  °F | °C
As of 8:58 AM on Saturday 25 Oct 2014 (Local Time) from KFTK Reporting Station
Overcast Overcast  
Wind Chill: 11°   Ceiling: 3500
Heat Index: 11°   Visibility: 10mi
Dew Point: 10°   Wind: 3mph
Humidity: 91%   Direction: 210°SSW
Pressure: 30.02"   Gusts: NA
Location:  37.66°N, 85.59°W
Report Text: KFTK 251258Z AUTO 21003KT 10SM BKN035 OVC045 12/10 A3002 RMK AO2 SLP169 T01150100
Loading
Personal Weather Stations






























Interactive Weather Map
Tropical Storm Tracking
New forecast layout! Learn more

10-Day Weather Forecast

Advertisements
Track Severe Weather on mobile